Time;durP1;ratioP1;P1;durP2;ratioP2;P2;SDS_P1;SDS_P2;PMS_P1;PMS_P2;Temp;Humidity;BMP_temperature;BMP_pressure;BME280_temperature;BME280_humidity;BME280_pressure;Samples;Min_cycle;Max_cycle;Signal;HPM_P1;HPM_P2
2023/03/13 00:01:36;;;;;;;41.10;7.82;;;9.20;99.90;;;;;;5053238;28;20045;-69
2023/03/13 00:04:02;;;;;;;30.63;6.70;;;8.00;99.90;;;;;;5053271;28;20197;-68
2023/03/13 00:06:31;;;;;;;46.33;7.72;;;8.50;99.90;;;;;;5052905;28;20567;-69
2023/03/13 00:08:59;;;;;;;45.33;7.30;;;9.10;99.90;;;;;;5053071;28;20127;-68
2023/03/13 00:11:25;;;;;;;46.13;7.40;;;9.20;99.90;;;;;;5053092;28;20044;-68
2023/03/13 00:13:57;;;;;;;40.53;6.82;;;8.40;99.90;;;;;;5052312;28;20041;-69
2023/03/13 00:16:23;;;;;;;36.25;7.35;;;9.40;99.90;;;;;;5052975;28;20053;-68
2023/03/13 00:18:51;;;;;;;38.08;7.80;;;7.90;99.90;;;;;;5052914;28;20408;-69
2023/03/13 00:21:19;;;;;;;46.55;7.63;;;9.40;99.90;;;;;;5052811;28;20132;-69
2023/03/13 00:23:45;;;;;;;38.80;7.43;;;9.30;99.90;;;;;;5052733;28;20393;-69
2023/03/13 00:26:12;;;;;;;;;;;9.00;99.90;;;;;;5053225;28;20049;-71
2023/03/13 00:28:39;;;;;;;43.13;7.28;;;9.40;99.90;;;;;;5052533;28;19928;-71
2023/03/13 00:31:06;;;;;;;44.55;7.60;;;8.10;99.90;;;;;;5052684;28;20172;-70
2023/03/13 00:33:33;;;;;;;31.55;7.50;;;7.60;99.90;;;;;;5052532;28;20547;-69
2023/03/13 00:36:05;;;;;;;47.38;8.82;;;9.10;99.90;;;;;;5051378;28;20131;-69
2023/03/13 00:38:32;;;;;;;39.33;7.43;;;9.40;99.90;;;;;;5052487;28;20109;-68
2023/03/13 00:41:03;;;;;;;45.78;8.70;;;8.00;99.90;;;;;;5052205;28;20076;-68
2023/03/13 00:43:29;;;;;;;38.03;7.72;;;8.20;99.90;;;;;;5052130;28;20057;-68
2023/03/13 00:45:55;;;;;;;45.95;8.75;;;9.10;99.90;;;;;;5052469;28;20473;-69
2023/03/13 00:48:21;;;;;;;36.78;8.70;;;9.40;99.90;;;;;;5052518;28;20067;-69
2023/03/13 00:50:47;;;;;;;47.25;8.55;;;8.30;99.90;;;;;;5052399;28;20054;-68
2023/03/13 00:53:13;;;;;;;38.88;7.28;;;9.20;99.90;;;;;;5052237;28;20614;-69
2023/03/13 00:55:39;;;;;;;50.58;8.35;;;8.70;99.90;;;;;;5051950;28;20132;-68
2023/03/13 00:58:04;;;;;;;46.63;9.25;;;9.40;99.90;;;;;;5052073;28;20389;-69
2023/03/13 01:00:30;;;;;;;42.58;7.90;;;8.20;99.90;;;;;;5067535;28;20473;-68
2023/03/13 01:02:56;;;;;;;52.47;8.55;;;8.10;99.90;;;;;;5049219;28;20041;-70
2023/03/13 01:05:21;;;;;;;42.25;7.15;;;7.70;99.90;;;;;;5050963;28;20084;-68
2023/03/13 01:07:47;;;;;;;49.13;8.10;;;9.40;99.90;;;;;;5052062;28;20043;-68
2023/03/13 01:10:13;;;;;;;48.88;9.00;;;8.90;99.90;;;;;;5050545;28;20092;-68
2023/03/13 01:12:38;;;;;;;45.55;8.38;;;8.10;99.90;;;;;;5052249;28;20048;-67
2023/03/13 01:15:04;;;;;;;39.80;8.15;;;8.80;99.90;;;;;;5051064;28;20045;-69
2023/03/13 01:17:30;;;;;;;42.88;7.90;;;9.20;99.90;;;;;;5051961;28;20056;-69
2023/03/13 01:19:56;;;;;;;37.65;7.55;;;8.50;99.90;;;;;;5051950;28;20535;-69
2023/03/13 01:22:22;;;;;;;51.40;8.40;;;8.00;99.90;;;;;;5051857;28;20197;-68
2023/03/13 01:24:51;;;;;;;50.10;9.02;;;9.10;99.90;;;;;;5051546;28;20500;-68
2023/03/13 01:27:18;;;;;;;43.10;8.10;;;9.20;99.90;;;;;;5051763;28;20059;-69
2023/03/13 01:29:44;;;;;;;40.92;8.75;;;8.40;99.90;;;;;;5051640;28;20045;-69
2023/03/13 01:32:10;;;;;;;44.85;8.25;;;8.40;99.90;;;;;;5050536;28;20065;-69
2023/03/13 01:34:36;;;;;;;41.28;8.35;;;7.80;99.90;;;;;;5051744;28;20045;-73
2023/03/13 01:37:01;;;;;;;44.17;7.97;;;8.80;99.90;;;;;;5050577;28;20075;-68
2023/03/13 01:39:27;;;;;;;45.28;8.43;;;7.60;99.90;;;;;;5051321;28;20052;-68
2023/03/13 01:41:53;;;;;;;50.88;9.52;;;9.10;99.90;;;;;;5051689;28;20114;-68
2023/03/13 01:44:23;;;;;;;42.05;8.10;;;8.10;99.90;;;;;;5051258;28;20080;-69
2023/03/13 01:46:48;;;;;;;39.92;7.72;;;9.10;99.90;;;;;;5051328;28;20551;-68
2023/03/13 01:49:20;;;;;;;38.75;9.45;;;8.10;99.90;;;;;;5051668;28;20052;-70
2023/03/13 01:51:48;;;;;;;39.15;8.82;;;8.10;99.90;;;;;;5051697;28;20063;-70
2023/03/13 01:54:31;;;;;;;43.92;8.98;;;9.30;99.90;;;;;;5051235;28;20052;-69
2023/03/13 01:57:03;;;;;;;47.28;9.30;;;8.00;99.90;;;;;;5050318;28;20136;-69
2023/03/13 01:59:34;;;;;;;43.03;8.90;;;9.20;99.90;;;;;;5051357;28;20045;-68
2023/03/13 02:02:02;;;;;;;42.30;9.10;;;9.60;99.90;;;;;;5051207;28;20489;-69
2023/03/13 02:04:37;;;;;;;43.85;8.40;;;8.70;99.90;;;;;;5066271;28;20124;-69
2023/03/13 02:07:09;;;;;;;45.05;9.45;;;9.50;99.90;;;;;;5051474;28;20118;-69
2023/03/13 02:09:40;;;;;;;49.05;9.25;;;7.90;99.90;;;;;;5049856;28;20049;-68
2023/03/13 02:12:10;;;;;;;44.17;10.15;;;9.30;99.90;;;;;;5051252;28;20041;-68
2023/03/13 02:14:39;;;;;;;56.42;10.98;;;9.30;99.90;;;;;;5051355;28;20076;-68
2023/03/13 02:17:06;;;;;;;40.85;9.77;;;8.40;99.90;;;;;;5051352;28;20502;-68
2023/03/13 02:20:02;;;;;;;47.35;9.38;;;8.00;99.90;;;;;;5051253;28;20076;-68
2023/03/13 02:22:37;;;;;;;54.85;10.85;;;8.10;99.90;;;;;;5053089;28;20053;-68
2023/03/13 02:25:33;;;;;;;47.67;10.73;;;8.40;99.90;;;;;;5055211;28;20097;-69
2023/03/13 02:28:08;;;;;;;46.45;10.35;;;7.90;99.90;;;;;;5053527;28;20483;-69
2023/03/13 02:30:34;;;;;;;46.60;10.55;;;8.30;99.90;;;;;;5054854;28;20040;-69
2023/03/13 02:33:01;;;;;;;51.58;10.70;;;9.10;99.90;;;;;;5054783;28;20131;-70
2023/03/13 02:35:28;;;;;;;46.85;10.40;;;8.80;99.90;;;;;;5053825;28;20079;-69
2023/03/13 02:37:58;;;;;;;35.65;11.35;;;8.10;99.90;;;;;;5054499;28;20128;-70
2023/03/13 02:40:29;;;;;;;37.38;8.82;;;9.30;99.90;;;;;;5054770;28;20087;-69
2023/03/13 02:42:57;;;;;;;37.38;9.98;;;9.20;99.90;;;;;;5054797;28;20079;-69
2023/03/13 02:45:23;;;;;;;28.98;8.90;;;8.90;99.90;;;;;;5054155;28;20512;-68
2023/03/13 02:47:48;;;;;;;33.78;8.30;;;8.20;99.90;;;;;;5054666;28;20131;-68
2023/03/13 02:50:15;;;;;;;29.48;9.60;;;8.60;99.90;;;;;;5054610;28;20113;-71
2023/03/13 02:52:43;;;;;;;31.10;9.43;;;8.10;99.90;;;;;;5053889;28;20542;-69
2023/03/13 02:55:16;;;;;;;24.17;8.05;;;9.20;99.90;;;;;;5054567;28;20383;-69
2023/03/13 02:57:42;;;;;;;28.73;7.82;;;8.20;99.90;;;;;;5054565;28;20041;-69
2023/03/13 03:00:11;;;;;;;22.38;8.32;;;9.50;99.90;;;;;;5054512;28;20041;-69
2023/03/13 03:02:38;;;;;;;25.30;7.55;;;9.30;99.90;;;;;;5054556;28;20045;-69
2023/03/13 03:05:04;;;;;;;;;;;9.90;99.90;;;;;;5037432;28;20053;-69
2023/03/13 03:07:29;;;;;;;17.85;6.93;;;9.30;99.90;;;;;;5054023;28;20281;-69
2023/03/13 03:09:55;;;;;;;26.25;7.43;;;9.00;99.90;;;;;;5054184;28;20057;-72
2023/03/13 03:12:21;;;;;;;23.30;7.45;;;9.90;99.90;;;;;;5054178;28;20049;-70
2023/03/13 03:14:47;;;;;;;18.45;7.25;;;9.30;99.90;;;;;;5054409;28;20469;-70
2023/03/13 03:17:12;;;;;;;25.08;7.90;;;9.40;99.90;;;;;;5054177;28;20044;-70
2023/03/13 03:19:38;;;;;;;20.10;7.13;;;9.70;99.90;;;;;;5054127;28;20126;-70
2023/03/13 03:22:04;;;;;;;20.88;6.65;;;8.30;99.90;;;;;;5052567;28;20048;-69
2023/03/13 03:24:29;;;;;;;14.35;6.57;;;8.30;99.90;;;;;;5053993;28;20721;-69
2023/03/13 03:26:55;;;;;;;15.40;6.07;;;8.40;99.90;;;;;;5052626;28;20135;-72
2023/03/13 03:29:21;;;;;;;15.93;6.60;;;9.90;99.90;;;;;;5053851;28;20049;-70
2023/03/13 03:31:47;;;;;;;20.83;7.15;;;9.40;99.90;;;;;;5053464;28;20055;-73
2023/03/13 03:34:13;;;;;;;14.55;7.07;;;8.50;99.90;;;;;;5053701;28;20041;-70
2023/03/13 03:36:38;;;;;;;18.15;6.78;;;8.90;99.90;;;;;;5053442;28;20049;-71
2023/03/13 03:39:04;;;;;;;19.92;6.95;;;9.90;99.90;;;;;;5053735;28;20056;-71
2023/03/13 03:41:30;;;;;;;15.07;6.97;;;8.60;99.90;;;;;;5053665;28;20045;-70
2023/03/13 03:43:56;;;;;;;14.93;6.55;;;10.10;99.90;;;;;;5053430;28;20065;-70
2023/03/13 03:46:22;;;;;;;17.05;6.78;;;9.30;99.90;;;;;;5053671;28;20136;-70
2023/03/13 03:48:47;;;;;;;13.95;6.20;;;10.10;99.90;;;;;;5053555;28;20119;-72
2023/03/13 03:51:13;;;;;;;12.57;6.60;;;9.90;99.90;;;;;;5053512;28;20048;-71
2023/03/13 03:53:39;;;;;;;13.88;6.40;;;8.30;99.90;;;;;;5053364;28;20136;-69
2023/03/13 03:56:05;;;;;;;10.05;5.65;;;10.40;99.90;;;;;;5053625;28;20067;-71
2023/03/13 03:58:31;;;;;;;12.13;5.20;;;9.10;99.90;;;;;;5053380;28;20053;-71
2023/03/13 04:00:57;;;;;;;11.43;5.53;;;8.80;99.90;;;;;;5053355;28;20456;-70
2023/03/13 04:03:23;;;;;;;;;;;8.30;99.90;;;;;;5053669;28;20041;-70
2023/03/13 04:05:49;;;;;;;9.98;4.88;;;10.20;99.90;;;;;;5052982;28;19924;-73
2023/03/13 04:08:15;;;;;;;13.15;5.38;;;8.70;99.90;;;;;;5053156;28;20098;-70
2023/03/13 04:10:40;;;;;;;10.88;5.53;;;8.80;99.90;;;;;;5053086;28;20048;-70
2023/03/13 04:13:06;;;;;;;11.30;5.57;;;8.70;99.90;;;;;;5053022;28;20049;-72
2023/03/13 04:15:32;;;;;;;11.93;5.90;;;10.60;99.90;;;;;;5053279;28;20295;-71
2023/03/13 04:17:57;;;;;;;12.48;6.80;;;8.70;99.90;;;;;;5053034;28;20183;-71
2023/03/13 04:20:23;;;;;;;12.77;6.95;;;8.40;99.90;;;;;;5051781;28;20127;-70
2023/03/13 04:22:49;;;;;;;12.95;7.32;;;10.70;99.90;;;;;;5052964;28;20033;-70
2023/03/13 04:25:15;;;;;;;13.48;7.70;;;9.70;99.90;;;;;;5052916;28;20064;-74
2023/03/13 04:27:40;;;;;;;18.63;9.43;;;12.10;99.90;;;;;;5052454;28;20045;-71
2023/03/13 04:30:07;;;;;;;25.00;12.02;;;6.40;99.90;;;;;;5052646;28;20127;-72
2023/03/13 04:32:33;;;;;;;28.17;14.98;;;9.60;99.90;;;;;;5052823;28;20044;-72
2023/03/13 04:34:58;;;;;;;34.28;14.88;;;7.10;99.90;;;;;;5051113;28;20048;-70
2023/03/13 04:37:24;;;;;;;31.65;17.08;;;13.70;99.90;;;;;;5052555;28;20088;-72
2023/03/13 04:39:50;;;;;;;30.58;16.83;;;6.60;99.90;;;;;;5052591;28;20131;-71
2023/03/13 04:42:16;;;;;;;;;;;9.30;99.90;;;;;;5051689;28;20473;-70
2023/03/13 04:44:41;;;;;;;37.38;17.33;;;6.30;99.90;;;;;;5051592;28;19925;-74
2023/03/13 04:47:07;;;;;;;38.85;18.73;;;13.00;99.90;;;;;;5052472;28;20053;-71
2023/03/13 04:49:33;;;;;;;43.63;19.83;;;10.60;99.90;;;;;;5051857;28;20092;-72
2023/03/13 04:51:59;;;;;;;36.60;18.00;;;9.40;99.90;;;;;;5052364;28;20049;-70
2023/03/13 04:54:25;;;;;;;42.00;17.90;;;11.10;99.90;;;;;;5051190;28;20041;-69
2023/03/13 04:56:51;;;;;;;36.33;17.40;;;7.10;99.90;;;;;;5052543;28;20084;-68
2023/03/13 04:59:16;;;;;;;32.83;15.20;;;14.10;99.90;;;;;;5052388;28;20092;-73
2023/03/13 05:01:42;;;;;;;50.83;17.63;;;10.30;99.90;;;;;;5052301;28;20397;-71
2023/03/13 05:04:09;;;;;;;33.08;17.90;;;8.20;99.90;;;;;;5051993;28;20083;-71
2023/03/13 05:06:34;;;;;;;32.13;15.73;;;12.10;99.90;;;;;;5052159;28;20045;-68
2023/03/13 05:09:00;;;;;;;35.55;15.82;;;13.30;99.90;;;;;;5052086;28;20374;-68
2023/03/13 05:11:26;;;;;;;30.33;13.85;;;13.10;99.90;;;;;;5052057;28;20045;-69
2023/03/13 05:13:52;;;;;;;29.95;14.07;;;13.90;99.90;;;;;;5051961;28;20060;-72
2023/03/13 05:16:18;;;;;;;38.75;14.00;;;13.80;99.90;;;;;;5051003;28;20049;-71
2023/03/13 05:18:44;;;;;;;33.70;11.77;;;7.20;99.90;;;;;;5051669;28;20045;-71
2023/03/13 05:21:10;;;;;;;32.30;11.63;;;13.90;99.90;;;;;;5051928;28;20130;-71
2023/03/13 05:23:35;;;;;;;33.70;12.43;;;7.30;99.90;;;;;;5051948;28;20033;-73
2023/03/13 05:26:01;;;;;;;29.73;10.18;;;10.80;99.90;;;;;;5051827;28;20119;-71
2023/03/13 05:28:27;;;;;;;30.50;10.15;;;9.60;99.90;;;;;;5051781;28;20110;-72
2023/03/13 05:30:53;;;;;;;25.25;10.60;;;13.50;99.90;;;;;;5051671;28;20125;-71
2023/03/13 05:33:19;;;;;;;18.95;7.60;;;12.50;99.90;;;;;;5051756;28;20044;-73
2023/03/13 05:35:45;;;;;;;24.67;8.00;;;12.40;99.90;;;;;;5051488;28;20489;-73
2023/03/13 05:38:12;;;;;;;29.88;8.75;;;12.10;99.90;;;;;;5050665;28;20045;-69
2023/03/13 05:40:38;;;;;;;17.77;7.07;;;11.70;99.90;;;;;;5051720;28;20451;-71
2023/03/13 05:43:04;;;;;;;20.23;7.15;;;11.00;99.90;;;;;;5051807;28;20836;-71
2023/03/13 05:45:30;;;;;;;19.80;7.43;;;11.90;99.90;;;;;;5050097;28;20092;-70
2023/03/13 05:47:57;;;;;;;20.63;8.70;;;12.10;99.90;;;;;;5051579;28;20049;-71
2023/03/13 05:50:24;;;;;;;22.52;7.88;;;11.10;99.90;;;;;;5051609;28;20056;-70
2023/03/13 05:52:50;;;;;;;25.75;8.32;;;10.50;99.90;;;;;;5051590;28;20092;-71
2023/03/13 05:55:16;;;;;;;35.08;8.32;;;11.10;99.90;;;;;;5052551;28;20473;-69
2023/03/13 05:57:45;;;;;;;;;;;11.80;99.90;;;;;;5056053;28;20044;-74
2023/03/13 06:00:12;;;;;;;26.35;8.13;;;11.30;99.90;;;;;;5055303;28;19970;-73
2023/03/13 06:02:37;;;;;;;22.52;8.18;;;10.30;99.90;;;;;;5055572;28;20051;-72
2023/03/13 06:05:03;;;;;;;25.65;7.90;;;11.30;99.90;;;;;;5054519;28;20046;-71
2023/03/13 06:07:29;;;;;;;26.25;9.15;;;10.30;99.90;;;;;;5054211;28;20045;-68
2023/03/13 06:09:55;;;;;;;25.95;8.85;;;11.70;99.90;;;;;;5055439;28;20466;-70
2023/03/13 06:12:20;;;;;;;36.78;8.88;;;11.70;99.90;;;;;;5055310;28;20045;-69
2023/03/13 06:14:46;;;;;;;23.55;8.90;;;11.80;99.90;;;;;;5053816;28;20057;-71
2023/03/13 06:17:12;;;;;;;26.60;8.93;;;11.70;99.90;;;;;;5055264;28;20220;-71
2023/03/13 06:19:37;;;;;;;29.25;9.10;;;11.70;99.90;;;;;;5055242;28;20175;-73
2023/03/13 06:22:03;;;;;;;32.97;9.80;;;10.40;99.90;;;;;;5055262;28;20045;-68
2023/03/13 06:24:29;;;;;;;29.23;9.80;;;10.40;99.90;;;;;;5055188;28;20048;-70
2023/03/13 06:26:54;;;;;;;32.88;9.77;;;10.60;99.90;;;;;;5054044;28;20033;-67
2023/03/13 06:29:20;;;;;;;38.92;9.85;;;10.30;99.90;;;;;;5054781;28;20045;-69
2023/03/13 06:31:46;;;;;;;30.23;9.55;;;10.40;99.90;;;;;;5054956;28;20037;-69
2023/03/13 06:34:12;;;;;;;31.90;8.95;;;10.10;99.90;;;;;;5054859;28;20118;-70
2023/03/13 06:36:38;;;;;;;35.38;10.35;;;11.60;99.90;;;;;;5054895;28;20507;-69
2023/03/13 06:39:04;;;;;;;24.15;8.77;;;11.90;99.90;;;;;;5054927;28;20040;-69
2023/03/13 06:41:30;;;;;;;31.88;10.00;;;11.90;99.90;;;;;;5053880;28;20393;-70
2023/03/13 06:43:56;;;;;;;33.25;9.30;;;10.10;99.90;;;;;;5036700;28;20049;-72
2023/03/13 06:46:23;;;;;;;29.35;8.38;;;11.70;99.90;;;;;;5053923;28;20098;-70
2023/03/13 06:48:49;;;;;;;20.20;8.18;;;11.00;99.90;;;;;;5053777;28;20051;-72
2023/03/13 06:51:16;;;;;;;;;;;10.60;99.90;;;;;;5054795;28;20485;-69
2023/03/13 06:53:42;;;;;;;27.55;7.85;;;12.00;99.90;;;;;;5054488;28;20022;-72
2023/03/13 07:03:13;;;;;;;35.45;7.60;;;12.60;99.90;;;;;;5130212;27;20424;-72
2023/03/13 07:05:39;;;;;;;29.55;6.75;;;11.80;99.90;;;;;;5129989;27;20051;-73
2023/03/13 07:08:05;;;;;;;24.15;7.00;;;10.70;99.90;;;;;;5130279;27;20078;-72
2023/03/13 07:10:31;;;;;;;22.60;7.47;;;12.30;99.90;;;;;;5130210;27;20495;-69
2023/03/13 07:12:56;;;;;;;22.70;5.85;;;12.60;99.90;;;;;;5129848;27;20031;-69
2023/03/13 07:15:22;;;;;;;28.80;6.50;;;11.80;99.90;;;;;;5129870;27;20051;-71
2023/03/13 07:17:48;;;;;;;28.25;7.35;;;11.00;99.90;;;;;;5129864;27;20138;-70
2023/03/13 07:20:14;;;;;;;19.92;6.82;;;12.30;99.90;;;;;;5130150;27;20055;-70
2023/03/13 07:22:39;;;;;;;28.70;7.15;;;11.10;99.90;;;;;;5129885;27;20057;-70
2023/03/13 07:25:06;;;;;;;28.50;6.63;;;11.20;99.90;;;;;;5129951;27;20117;-72
2023/03/13 07:27:32;;;;;;;24.33;5.95;;;11.20;99.90;;;;;;5129532;27;20126;-71
2023/03/13 07:29:57;;;;;;;20.10;6.47;;;12.20;99.90;;;;;;5129817;27;20126;-70
2023/03/13 07:32:23;;;;;;;24.08;6.63;;;12.00;99.90;;;;;;5129811;27;20053;-69
2023/03/13 07:34:49;;;;;;;24.90;6.10;;;12.10;99.90;;;;;;5111719;28;20047;-70
2023/03/13 07:37:15;;;;;;;19.85;6.68;;;12.00;99.90;;;;;;5129511;27;20063;-70
2023/03/13 07:39:42;;;;;;;24.45;6.70;;;11.00;99.90;;;;;;5129313;27;20515;-73
2023/03/13 07:42:11;;;;;;;23.83;6.40;;;11.50;99.90;;;;;;5129195;27;20469;-69
2023/03/13 07:44:37;;;;;;;21.10;6.05;;;11.00;99.90;;;;;;5129603;27;20051;-71
2023/03/13 07:47:03;;;;;;;16.13;5.18;;;12.30;99.90;;;;;;5129362;27;20059;-70
2023/03/13 07:49:30;;;;;;;;;;;12.10;99.90;;;;;;5129617;27;20491;-69
2023/03/13 07:51:56;;;;;;;23.60;6.78;;;12.40;99.90;;;;;;5129132;27;20375;-70
2023/03/13 07:54:22;;;;;;;19.38;5.13;;;11.60;99.90;;;;;;5128299;28;20070;-72
2023/03/13 07:56:48;;;;;;;17.60;5.80;;;12.60;99.90;;;;;;5129120;27;20475;-70
2023/03/13 07:59:13;;;;;;;20.83;5.80;;;11.40;99.90;;;;;;5129346;27;20051;-71
2023/03/13 08:01:39;;;;;;;23.38;5.88;;;11.40;99.90;;;;;;5128870;27;20070;-70
2023/03/13 08:04:05;;;;;;;21.67;5.50;;;11.10;99.90;;;;;;5129158;27;20044;-71
2023/03/13 08:06:34;;;;;;;23.90;5.80;;;12.50;99.90;;;;;;5128757;27;20040;-69
2023/03/13 08:09:00;;;;;;;24.70;5.82;;;11.40;99.90;;;;;;5128738;27;20075;-71
2023/03/13 08:11:27;;;;;;;;;;;12.40;99.90;;;;;;5127793;28;20379;-70
2023/03/13 08:13:54;;;;;;;17.52;5.35;;;10.90;99.90;;;;;;5118841;27;20506;-71
2023/03/13 08:16:27;;;;;;;14.20;5.00;;;12.50;99.90;;;;;;5115217;28;20044;-70
2023/03/13 08:18:56;;;;;;;19.05;4.30;;;12.20;99.90;;;;;;5114800;28;20044;-72
2023/03/13 08:21:29;;;;;;;14.90;4.60;;;12.20;99.90;;;;;;5098454;28;20090;-73
2023/03/13 08:23:58;;;;;;;18.52;4.65;;;11.70;99.90;;;;;;5093277;28;20075;-73
2023/03/13 08:26:26;;;;;;;19.52;4.60;;;12.40;99.90;;;;;;5093793;28;20044;-69
2023/03/13 08:28:54;;;;;;;14.05;4.47;;;12.50;99.90;;;;;;5118253;27;20048;-68
2023/03/13 08:31:23;;;;;;;14.65;5.18;;;11.70;99.90;;;;;;5104308;28;20110;-70
2023/03/13 08:33:49;;;;;;;15.48;5.40;;;12.70;99.90;;;;;;5113351;28;20051;-71
2023/03/13 08:36:24;;;;;;;21.73;4.85;;;12.40;99.90;;;;;;5113946;28;20058;-69
2023/03/13 08:38:51;;;;;;;17.10;4.80;;;12.90;99.90;;;;;;5114552;28;20545;-69
2023/03/13 08:41:20;;;;;;;13.35;4.75;;;12.30;99.90;;;;;;5114273;28;20031;-71
2023/03/13 08:43:46;;;;;;;17.70;5.00;;;11.90;99.90;;;;;;5114077;28;20048;-70
2023/03/13 08:46:13;;;;;;;18.38;4.80;;;12.50;99.90;;;;;;5114511;28;20069;-71
2023/03/13 08:48:38;;;;;;;17.27;4.40;;;12.00;99.90;;;;;;5114494;28;20144;-71
2023/03/13 08:51:10;;;;;;;16.95;4.28;;;13.20;99.90;;;;;;5113628;28;20062;-70
2023/03/13 08:53:37;;;;;;;16.38;4.72;;;13.40;99.90;;;;;;5114224;28;20047;-70
2023/03/13 08:56:04;;;;;;;15.65;4.35;;;13.50;99.90;;;;;;5114066;28;20039;-71
2023/03/13 08:58:30;;;;;;;14.65;3.80;;;13.30;99.90;;;;;;5129706;27;20066;-70
2023/03/13 09:01:04;;;;;;;15.05;3.63;;;12.30;99.90;;;;;;5114149;28;20055;-72
2023/03/13 09:03:31;;;;;;;15.90;3.38;;;13.30;99.90;;;;;;5113764;28;20495;-70
2023/03/13 09:05:58;;;;;;;13.02;3.00;;;13.60;99.90;;;;;;5113167;28;20043;-70
2023/03/13 09:08:25;;;;;;;15.80;3.67;;;12.50;99.90;;;;;;5113728;28;20661;-71
2023/03/13 09:11:03;;;;;;;13.63;4.45;;;13.70;99.90;;;;;;5114024;28;20098;-72
2023/03/13 09:13:30;;;;;;;12.10;3.00;;;12.80;99.90;;;;;;5112277;28;20071;-74
2023/03/13 09:16:01;;;;;;;13.27;3.55;;;13.70;99.90;;;;;;5112758;28;20091;-69
2023/03/13 09:18:28;;;;;;;11.80;3.17;;;12.90;99.90;;;;;;5113870;28;20074;-74
2023/03/13 09:20:54;;;;;;;12.68;3.35;;;12.80;99.90;;;;;;5112945;28;20083;-70
2023/03/13 09:23:20;;;;;;;11.90;3.63;;;13.60;99.90;;;;;;5113386;28;20079;-68
2023/03/13 09:25:46;;;;;;;12.00;4.25;;;13.50;99.90;;;;;;5112738;28;20054;-69
2023/03/13 09:28:12;;;;;;;13.75;3.55;;;12.60;99.90;;;;;;5112922;28;20058;-71
2023/03/13 09:30:38;;;;;;;17.38;4.55;;;12.20;99.90;;;;;;5113813;28;20039;-70
2023/03/13 09:33:03;;;;;;;17.25;3.72;;;12.10;99.90;;;;;;5112293;28;20039;-68
2023/03/13 09:35:29;;;;;;;16.77;3.65;;;12.80;99.90;;;;;;5113210;28;20051;-73
2023/03/13 09:37:55;;;;;;;16.10;3.67;;;13.60;99.90;;;;;;5111582;28;20047;-72
2023/03/13 09:40:23;;;;;;;21.05;4.47;;;13.50;99.90;;;;;;5113425;28;20052;-73
2023/03/13 09:42:58;;;;;;;18.95;4.75;;;12.20;99.90;;;;;;5111527;28;20729;-73
2023/03/13 09:45:35;;;;;;;17.88;4.18;;;13.40;99.90;;;;;;5113495;28;20051;-70
2023/03/13 09:48:33;;;;;;;12.52;3.58;;;13.20;99.90;;;;;;5112239;28;20047;-71
2023/03/13 09:51:06;;;;;;;10.90;3.78;;;13.00;99.90;;;;;;5111416;28;20055;-70
2023/03/13 09:53:40;;;;;;;15.77;3.92;;;12.00;99.90;;;;;;5112289;28;20052;-69
2023/03/13 09:56:14;;;;;;;18.50;4.22;;;11.50;99.90;;;;;;5113014;28;20051;-70
2023/03/13 09:58:50;;;;;;;15.02;4.65;;;13.80;99.90;;;;;;5112548;28;20051;-73
2023/03/13 10:01:22;;;;;;;17.40;3.95;;;13.00;99.90;;;;;;5094540;28;20485;-73
2023/03/13 10:04:20;;;;;;;16.95;4.25;;;12.60;99.90;;;;;;5112667;28;20514;-69
2023/03/13 10:06:47;;;;;;;17.30;4.43;;;13.80;99.90;;;;;;5093900;28;20063;-68
2023/03/13 10:09:31;;;;;;;15.13;4.43;;;13.80;99.90;;;;;;5112893;28;20051;-71
2023/03/13 10:12:26;;;;;;;20.85;5.15;;;13.80;99.90;;;;;;5113036;28;20043;-69
2023/03/13 10:14:56;;;;;;;23.13;4.63;;;13.80;99.90;;;;;;5108632;28;20059;-70
2023/03/13 10:17:35;;;;;;;21.33;4.40;;;12.20;99.90;;;;;;5111546;28;20052;-74
2023/03/13 10:20:24;;;;;;;19.73;3.90;;;13.90;99.90;;;;;;5112236;28;20048;-73
2023/03/13 10:23:06;;;;;;;19.77;4.20;;;13.50;99.90;;;;;;5112318;28;20040;-71
2023/03/13 10:25:34;;;;;;;19.40;4.25;;;14.00;99.90;;;;;;5112524;28;20055;-69
2023/03/13 10:28:00;;;;;;;20.10;3.63;;;13.40;99.90;;;;;;5098956;28;20039;-70
2023/03/13 10:30:29;;;;;;;16.75;3.90;;;14.00;99.90;;;;;;5106819;28;20067;-70
2023/03/13 10:33:07;;;;;;;20.63;4.47;;;13.80;99.90;;;;;;5095398;28;20383;-72
2023/03/13 10:35:37;;;;;;;16.08;4.25;;;13.80;99.90;;;;;;5096473;28;20050;-71
2023/03/13 10:38:16;;;;;;;23.85;5.07;;;14.20;99.90;;;;;;5098990;28;20052;-73
2023/03/13 10:40:42;;;;;;;25.70;4.93;;;14.50;99.90;;;;;;5097160;28;20066;-71
2023/03/13 10:43:19;;;;;;;24.50;4.90;;;13.40;99.90;;;;;;5100949;28;20471;-75
2023/03/13 10:45:45;;;;;;;23.08;5.15;;;13.80;99.90;;;;;;5098540;28;20040;-73
2023/03/13 10:48:28;;;;;;;27.75;6.10;;;14.30;99.90;;;;;;5107450;28;20060;-76
2023/03/13 10:50:58;;;;;;;22.33;5.47;;;13.80;99.90;;;;;;5089648;28;20119;-74
2023/03/13 10:53:32;;;;;;;26.02;4.78;;;14.30;99.90;;;;;;5089601;28;20040;-70
2023/03/13 10:56:13;;;;;;;17.65;4.70;;;13.90;99.90;;;;;;5099335;28;20047;-71
2023/03/13 10:58:51;;;;;;;26.48;5.70;;;13.50;99.90;;;;;;5089467;28;20040;-68
2023/03/13 11:01:23;;;;;;;22.05;4.70;;;14.00;99.90;;;;;;5087477;28;20773;-72
2023/03/13 11:03:52;;;;;;;22.40;4.55;;;14.10;99.90;;;;;;5095848;28;20618;-71
2023/03/13 11:06:30;;;;;;;20.38;5.07;;;14.00;99.90;;;;;;5106430;28;20062;-70
2023/03/13 11:09:03;;;;;;;27.40;5.15;;;13.90;99.90;;;;;;5099693;28;20055;-73
2023/03/13 11:11:29;;;;;;;24.98;5.40;;;13.80;99.90;;;;;;5094006;28;20099;-71
2023/03/13 11:14:12;;;;;;;25.55;5.25;;;14.00;99.90;;;;;;5095933;28;20120;-71
2023/03/13 11:16:46;;;;;;;23.48;4.05;;;14.50;99.90;;;;;;5106543;28;20056;-68
2023/03/13 11:19:29;;;;;;;19.05;4.25;;;13.90;99.90;;;;;;5100552;28;20130;-72
2023/03/13 11:22:06;;;;;;;27.42;4.45;;;14.40;99.90;;;;;;5091587;28;20044;-72
2023/03/13 11:25:03;;;;;;;26.67;5.85;;;14.30;99.90;;;;;;5095559;28;20385;-69
2023/03/13 11:27:42;;;;;;;21.75;5.03;;;14.00;99.90;;;;;;5090034;28;20128;-68
2023/03/13 11:30:13;;;;;;;20.75;4.78;;;14.50;99.90;;;;;;5108415;28;20142;-73
2023/03/13 11:32:49;;;;;;;19.95;4.47;;;13.70;99.90;;;;;;5110762;28;20047;-73
2023/03/13 11:35:42;;;;;;;21.67;4.72;;;14.30;99.90;;;;;;5107485;28;20074;-74
2023/03/13 11:38:26;;;;;;;18.40;4.90;;;14.80;99.90;;;;;;5104588;28;20123;-73
2023/03/13 11:41:10;;;;;;;18.70;4.07;;;14.30;99.90;;;;;;5099436;28;20052;-73
2023/03/13 11:44:04;;;;;;;18.08;4.22;;;14.20;99.90;;;;;;5098546;28;20162;-69
2023/03/13 11:47:11;;;;;;;26.48;5.18;;;14.30;99.90;;;;;;5090548;28;20143;-72
2023/03/13 11:49:54;;;;;;;24.25;5.20;;;14.50;99.90;;;;;;5108991;27;20122;-76
2023/03/13 11:52:47;;;;;;;16.95;3.78;;;14.10;99.90;;;;;;5094149;28;20039;-71
2023/03/13 11:55:20;;;;;;;23.50;4.80;;;14.70;99.90;;;;;;5093831;28;20089;-72
2023/03/13 11:58:06;;;;;;;23.58;5.18;;;14.30;99.90;;;;;;5094270;28;20114;-78
2023/03/13 12:00:36;;;;;;;26.58;4.90;;;14.40;99.90;;;;;;5094413;28;20494;-70
2023/03/13 12:03:33;;;;;;;22.20;4.72;;;13.90;99.90;;;;;;5094663;28;20413;-73
2023/03/13 12:06:01;;;;;;;25.03;4.97;;;14.00;99.90;;;;;;5091824;28;20492;-72
2023/03/13 12:08:36;;;;;;;30.30;5.00;;;13.80;99.90;;;;;;5093891;28;20769;-70
2023/03/13 12:11:20;;;;;;;24.00;5.43;;;14.10;99.90;;;;;;5075287;28;20044;-73
2023/03/13 12:14:15;;;;;;;20.38;5.63;;;13.80;99.90;;;;;;5101595;28;20466;-75
2023/03/13 12:16:54;;;;;;;26.67;6.05;;;13.90;99.90;;;;;;5083520;28;20081;-70
2023/03/13 12:19:44;;;;;;;23.52;6.47;;;14.10;99.90;;;;;;5093517;28;20040;-71
2023/03/13 12:22:16;;;;;;;29.77;5.85;;;14.60;99.90;;;;;;5109569;28;20404;-72
2023/03/13 12:25:20;;;;;;;24.67;5.05;;;14.10;99.90;;;;;;5117862;27;20047;-72
2023/03/13 12:27:51;;;;;;;29.02;5.90;;;14.30;99.90;;;;;;5091459;28;20060;-74
2023/03/13 12:30:43;;;;;;;29.20;6.75;;;13.70;99.90;;;;;;5100871;28;20426;-70
2023/03/13 12:33:25;;;;;;;29.55;5.60;;;14.20;99.90;;;;;;5094278;28;20078;-77
2023/03/13 12:36:28;;;;;;;32.00;5.35;;;14.00;99.90;;;;;;5093998;28;20078;-76
2023/03/13 12:38:59;;;;;;;28.15;5.47;;;14.10;99.90;;;;;;5090994;28;20048;-73
2023/03/13 12:41:33;;;;;;;22.42;5.45;;;14.20;99.90;;;;;;5098713;28;20047;-71
2023/03/13 12:43:59;;;;;;;22.77;5.25;;;13.90;99.90;;;;;;5098371;28;20093;-71
2023/03/13 12:46:34;;;;;;;20.38;4.57;;;14.20;99.90;;;;;;5075541;28;20071;-71
2023/03/13 12:49:21;;;;;;;24.67;5.65;;;13.90;99.90;;;;;;5099439;28;20079;-71
2023/03/13 12:52:13;;;;;;;27.50;5.70;;;13.90;99.90;;;;;;5094532;28;20145;-71
2023/03/13 12:54:51;;;;;;;23.50;5.43;;;14.30;99.90;;;;;;5098079;28;20044;-72
2023/03/13 12:58:03;;;;;;;23.17;4.70;;;14.40;99.90;;;;;;5093506;28;20072;-69
2023/03/13 13:00:30;;;;;;;25.55;5.82;;;14.10;99.90;;;;;;5078479;28;20075;-71
2023/03/13 13:03:29;;;;;;;30.63;5.68;;;14.20;99.90;;;;;;5092802;28;20056;-71